sensor_id;sensor_type;location;lat;lon;timestamp;P1;durP1;ratioP1;P2;durP2;ratioP2
18019;SDS011;9135;48.362;10.878;2023-06-24T00:02:06;1.55;;;1.45;;
18019;SDS011;9135;48.362;10.878;2023-06-24T00:04:32;9.60;;;2.90;;
18019;SDS011;9135;48.362;10.878;2023-06-24T00:06:59;3.00;;;2.47;;
18019;SDS011;9135;48.362;10.878;2023-06-24T00:09:29;3.13;;;2.42;;
18019;SDS011;9135;48.362;10.878;2023-06-24T00:11:58;4.05;;;2.45;;
18019;SDS011;9135;48.362;10.878;2023-06-24T00:14:24;4.28;;;2.90;;
18019;SDS011;9135;48.362;10.878;2023-06-24T00:16:51;4.88;;;2.53;;
18019;SDS011;9135;48.362;10.878;2023-06-24T00:19:21;2.85;;;2.35;;
18019;SDS011;9135;48.362;10.878;2023-06-24T00:21:48;3.78;;;2.45;;
18019;SDS011;9135;48.362;10.878;2023-06-24T00:24:16;2.67;;;2.03;;
18019;SDS011;9135;48.362;10.878;2023-06-24T00:26:42;3.65;;;2.60;;
18019;SDS011;9135;48.362;10.878;2023-06-24T00:29:08;2.95;;;2.67;;
18019;SDS011;9135;48.362;10.878;2023-06-24T00:31:34;3.97;;;2.72;;
18019;SDS011;9135;48.362;10.878;2023-06-24T00:34:00;4.93;;;2.20;;
18019;SDS011;9135;48.362;10.878;2023-06-24T00:36:26;3.22;;;2.55;;
18019;SDS011;9135;48.362;10.878;2023-06-24T00:38:52;2.63;;;2.42;;
18019;SDS011;9135;48.362;10.878;2023-06-24T00:41:18;7.85;;;3.28;;
18019;SDS011;9135;48.362;10.878;2023-06-24T00:43:45;5.68;;;2.88;;
18019;SDS011;9135;48.362;10.878;2023-06-24T00:46:11;9.35;;;4.50;;
18019;SDS011;9135;48.362;10.878;2023-06-24T00:48:40;4.93;;;2.50;;
18019;SDS011;9135;48.362;10.878;2023-06-24T00:51:06;6.72;;;3.38;;
18019;SDS011;9135;48.362;10.878;2023-06-24T00:53:32;3.03;;;2.67;;
18019;SDS011;9135;48.362;10.878;2023-06-24T00:55:58;2.25;;;2.05;;
18019;SDS011;9135;48.362;10.878;2023-06-24T00:58:31;4.03;;;2.88;;
18019;SDS011;9135;48.362;10.878;2023-06-24T01:00:57;3.85;;;2.80;;
18019;SDS011;9135;48.362;10.878;2023-06-24T01:03:24;3.40;;;2.42;;
18019;SDS011;9135;48.362;10.878;2023-06-24T01:05:50;9.55;;;3.63;;
18019;SDS011;9135;48.362;10.878;2023-06-24T01:08:17;5.30;;;2.95;;
18019;SDS011;9135;48.362;10.878;2023-06-24T01:10:44;5.05;;;2.45;;
18019;SDS011;9135;48.362;10.878;2023-06-24T01:13:10;2.67;;;2.33;;
18019;SDS011;9135;48.362;10.878;2023-06-24T01:15:36;4.18;;;2.97;;
18019;SDS011;9135;48.362;10.878;2023-06-24T01:20:45;2.85;;;2.42;;
18019;SDS011;9135;48.362;10.878;2023-06-24T01:33:14;3.30;;;2.50;;
18019;SDS011;9135;48.362;10.878;2023-06-24T01:35:43;3.35;;;2.50;;
18019;SDS011;9135;48.362;10.878;2023-06-24T01:38:13;3.65;;;2.70;;
18019;SDS011;9135;48.362;10.878;2023-06-24T01:40:43;7.38;;;3.15;;
18019;SDS011;9135;48.362;10.878;2023-06-24T01:43:10;3.08;;;2.55;;
18019;SDS011;9135;48.362;10.878;2023-06-24T01:45:39;13.77;;;2.72;;
18019;SDS011;9135;48.362;10.878;2023-06-24T01:48:07;3.00;;;2.42;;
18019;SDS011;9135;48.362;10.878;2023-06-24T01:50:35;2.83;;;2.50;;
18019;SDS011;9135;48.362;10.878;2023-06-24T01:53:04;3.75;;;2.50;;
18019;SDS011;9135;48.362;10.878;2023-06-24T01:55:30;1.75;;;1.65;;
18019;SDS011;9135;48.362;10.878;2023-06-24T01:57:57;2.30;;;2.10;;
18019;SDS011;9135;48.362;10.878;2023-06-24T02:00:24;4.20;;;2.20;;
18019;SDS011;9135;48.362;10.878;2023-06-24T02:02:51;4.57;;;2.35;;
18019;SDS011;9135;48.362;10.878;2023-06-24T02:05:17;3.05;;;2.00;;
18019;SDS011;9135;48.362;10.878;2023-06-24T02:07:44;3.60;;;2.60;;
18019;SDS011;9135;48.362;10.878;2023-06-24T02:10:11;2.53;;;2.30;;
18019;SDS011;9135;48.362;10.878;2023-06-24T02:12:37;3.67;;;2.40;;
18019;SDS011;9135;48.362;10.878;2023-06-24T02:15:05;2.75;;;2.08;;
18019;SDS011;9135;48.362;10.878;2023-06-24T02:17:32;2.95;;;1.80;;
18019;SDS011;9135;48.362;10.878;2023-06-24T02:19:58;2.92;;;2.10;;
18019;SDS011;9135;48.362;10.878;2023-06-24T02:22:25;3.35;;;2.22;;
18019;SDS011;9135;48.362;10.878;2023-06-24T02:24:51;1.92;;;1.75;;
18019;SDS011;9135;48.362;10.878;2023-06-24T02:27:17;2.88;;;2.33;;
18019;SDS011;9135;48.362;10.878;2023-06-24T02:29:44;3.05;;;2.30;;
18019;SDS011;9135;48.362;10.878;2023-06-24T02:32:11;2.88;;;1.98;;
18019;SDS011;9135;48.362;10.878;2023-06-24T02:34:37;2.00;;;1.88;;
18019;SDS011;9135;48.362;10.878;2023-06-24T02:37:03;2.97;;;2.70;;
18019;SDS011;9135;48.362;10.878;2023-06-24T02:39:29;2.80;;;2.33;;
18019;SDS011;9135;48.362;10.878;2023-06-24T02:41:56;3.13;;;1.80;;
18019;SDS011;9135;48.362;10.878;2023-06-24T02:44:22;1.95;;;1.85;;
18019;SDS011;9135;48.362;10.878;2023-06-24T02:46:48;2.67;;;2.40;;
18019;SDS011;9135;48.362;10.878;2023-06-24T02:49:15;3.17;;;2.53;;
18019;SDS011;9135;48.362;10.878;2023-06-24T02:51:42;2.25;;;1.80;;
18019;SDS011;9135;48.362;10.878;2023-06-24T02:54:08;3.00;;;2.00;;
18019;SDS011;9135;48.362;10.878;2023-06-24T02:56:36;2.47;;;1.95;;
18019;SDS011;9135;48.362;10.878;2023-06-24T02:59:06;2.00;;;1.90;;
18019;SDS011;9135;48.362;10.878;2023-06-24T03:01:32;2.53;;;1.60;;
18019;SDS011;9135;48.362;10.878;2023-06-24T03:03:59;2.20;;;1.75;;
18019;SDS011;9135;48.362;10.878;2023-06-24T03:06:25;1.58;;;1.40;;
18019;SDS011;9135;48.362;10.878;2023-06-24T03:08:52;1.95;;;1.85;;
18019;SDS011;9135;48.362;10.878;2023-06-24T03:11:18;2.05;;;1.50;;
18019;SDS011;9135;48.362;10.878;2023-06-24T03:13:44;1.73;;;1.63;;
18019;SDS011;9135;48.362;10.878;2023-06-24T03:16:10;1.80;;;1.70;;
18019;SDS011;9135;48.362;10.878;2023-06-24T03:18:42;1.60;;;1.50;;
18019;SDS011;9135;48.362;10.878;2023-06-24T03:21:09;2.35;;;1.83;;
18019;SDS011;9135;48.362;10.878;2023-06-24T03:23:35;1.83;;;1.73;;
18019;SDS011;9135;48.362;10.878;2023-06-24T03:26:01;1.60;;;1.50;;
18019;SDS011;9135;48.362;10.878;2023-06-24T03:28:29;3.63;;;1.73;;
18019;SDS011;9135;48.362;10.878;2023-06-24T03:30:56;2.45;;;2.22;;
18019;SDS011;9135;48.362;10.878;2023-06-24T03:33:22;1.85;;;1.75;;
18019;SDS011;9135;48.362;10.878;2023-06-24T03:35:49;2.08;;;1.75;;
18019;SDS011;9135;48.362;10.878;2023-06-24T03:38:15;1.92;;;1.67;;
18019;SDS011;9135;48.362;10.878;2023-06-24T03:40:41;1.52;;;1.45;;
18019;SDS011;9135;48.362;10.878;2023-06-24T03:43:08;2.35;;;2.13;;
18019;SDS011;9135;48.362;10.878;2023-06-24T03:45:34;3.88;;;2.67;;
18019;SDS011;9135;48.362;10.878;2023-06-24T03:48:01;2.30;;;1.92;;
18019;SDS011;9135;48.362;10.878;2023-06-24T03:50:27;1.63;;;1.52;;
18019;SDS011;9135;48.362;10.878;2023-06-24T03:52:53;1.77;;;1.67;;
18019;SDS011;9135;48.362;10.878;2023-06-24T03:55:19;2.50;;;1.80;;
18019;SDS011;9135;48.362;10.878;2023-06-24T03:57:45;1.63;;;1.52;;
18019;SDS011;9135;48.362;10.878;2023-06-24T04:00:11;2.17;;;1.80;;
18019;SDS011;9135;48.362;10.878;2023-06-24T04:02:44;1.90;;;1.65;;
18019;SDS011;9135;48.362;10.878;2023-06-24T04:05:10;1.52;;;1.45;;
18019;SDS011;9135;48.362;10.878;2023-06-24T04:07:36;2.10;;;2.00;;
18019;SDS011;9135;48.362;10.878;2023-06-24T04:10:03;1.52;;;1.42;;
18019;SDS011;9135;48.362;10.878;2023-06-24T04:12:33;1.55;;;1.45;;
18019;SDS011;9135;48.362;10.878;2023-06-24T04:14:59;2.30;;;2.05;;
18019;SDS011;9135;48.362;10.878;2023-06-24T04:17:25;1.73;;;1.55;;
18019;SDS011;9135;48.362;10.878;2023-06-24T04:19:51;2.03;;;1.92;;
18019;SDS011;9135;48.362;10.878;2023-06-24T04:22:17;1.63;;;1.52;;
18019;SDS011;9135;48.362;10.878;2023-06-24T04:24:43;1.63;;;1.52;;
18019;SDS011;9135;48.362;10.878;2023-06-24T04:27:09;2.17;;;2.00;;
18019;SDS011;9135;48.362;10.878;2023-06-24T04:29:35;1.70;;;1.40;;
18019;SDS011;9135;48.362;10.878;2023-06-24T04:32:01;2.83;;;1.95;;
18019;SDS011;9135;48.362;10.878;2023-06-24T04:34:28;1.88;;;1.77;;
18019;SDS011;9135;48.362;10.878;2023-06-24T04:36:54;1.77;;;1.50;;
18019;SDS011;9135;48.362;10.878;2023-06-24T04:39:20;2.50;;;1.83;;
18019;SDS011;9135;48.362;10.878;2023-06-24T04:41:46;2.17;;;1.48;;
18019;SDS011;9135;48.362;10.878;2023-06-24T04:44:12;1.55;;;1.40;;
18019;SDS011;9135;48.362;10.878;2023-06-24T04:46:38;3.22;;;2.17;;
18019;SDS011;9135;48.362;10.878;2023-06-24T04:49:05;2.70;;;2.50;;
18019;SDS011;9135;48.362;10.878;2023-06-24T04:51:31;1.45;;;1.35;;
18019;SDS011;9135;48.362;10.878;2023-06-24T04:53:58;2.30;;;1.80;;
18019;SDS011;9135;48.362;10.878;2023-06-24T04:56:24;3.20;;;2.15;;
18019;SDS011;9135;48.362;10.878;2023-06-24T04:58:50;1.60;;;1.50;;
18019;SDS011;9135;48.362;10.878;2023-06-24T05:01:17;2.08;;;1.90;;
18019;SDS011;9135;48.362;10.878;2023-06-24T05:03:43;2.25;;;1.95;;
18019;SDS011;9135;48.362;10.878;2023-06-24T05:06:09;1.80;;;1.70;;
18019;SDS011;9135;48.362;10.878;2023-06-24T05:08:35;2.15;;;1.83;;
18019;SDS011;9135;48.362;10.878;2023-06-24T05:11:01;2.85;;;1.90;;
18019;SDS011;9135;48.362;10.878;2023-06-24T05:13:27;3.25;;;2.40;;
18019;SDS011;9135;48.362;10.878;2023-06-24T05:15:53;2.35;;;2.15;;
18019;SDS011;9135;48.362;10.878;2023-06-24T05:18:19;1.83;;;1.73;;
18019;SDS011;9135;48.362;10.878;2023-06-24T05:20:45;1.90;;;1.80;;
18019;SDS011;9135;48.362;10.878;2023-06-24T05:23:11;2.30;;;1.55;;
18019;SDS011;9135;48.362;10.878;2023-06-24T05:25:37;1.42;;;1.30;;
18019;SDS011;9135;48.362;10.878;2023-06-24T05:28:03;2.08;;;1.90;;
18019;SDS011;9135;48.362;10.878;2023-06-24T05:30:29;2.10;;;1.73;;
18019;SDS011;9135;48.362;10.878;2023-06-24T05:32:55;1.23;;;1.23;;
18019;SDS011;9135;48.362;10.878;2023-06-24T05:35:21;2.00;;;1.85;;
18019;SDS011;9135;48.362;10.878;2023-06-24T05:37:48;0.82;;;0.82;;
18019;SDS011;9135;48.362;10.878;2023-06-24T05:40:14;2.40;;;1.52;;
18019;SDS011;9135;48.362;10.878;2023-06-24T05:42:40;1.60;;;1.40;;
18019;SDS011;9135;48.362;10.878;2023-06-24T05:45:06;1.65;;;1.63;;
18019;SDS011;9135;48.362;10.878;2023-06-24T05:47:32;1.85;;;1.75;;
18019;SDS011;9135;48.362;10.878;2023-06-24T05:49:58;1.52;;;1.42;;
18019;SDS011;9135;48.362;10.878;2023-06-24T05:52:24;2.00;;;1.60;;
18019;SDS011;9135;48.362;10.878;2023-06-24T05:54:50;2.28;;;2.10;;
18019;SDS011;9135;48.362;10.878;2023-06-24T05:57:16;1.67;;;1.58;;
18019;SDS011;9135;48.362;10.878;2023-06-24T05:59:42;2.20;;;2.10;;
18019;SDS011;9135;48.362;10.878;2023-06-24T06:02:08;1.92;;;1.73;;
18019;SDS011;9135;48.362;10.878;2023-06-24T06:04:34;1.90;;;1.80;;
18019;SDS011;9135;48.362;10.878;2023-06-24T06:07:00;1.77;;;1.67;;
18019;SDS011;9135;48.362;10.878;2023-06-24T06:09:27;1.27;;;1.27;;
18019;SDS011;9135;48.362;10.878;2023-06-24T06:11:53;2.13;;;1.90;;
18019;SDS011;9135;48.362;10.878;2023-06-24T06:14:19;1.60;;;1.50;;
18019;SDS011;9135;48.362;10.878;2023-06-24T06:16:45;1.85;;;1.75;;
18019;SDS011;9135;48.362;10.878;2023-06-24T06:19:11;1.67;;;1.55;;
18019;SDS011;9135;48.362;10.878;2023-06-24T06:21:37;1.73;;;1.63;;
18019;SDS011;9135;48.362;10.878;2023-06-24T06:24:03;1.95;;;1.70;;
18019;SDS011;9135;48.362;10.878;2023-06-24T06:26:29;1.95;;;1.85;;
18019;SDS011;9135;48.362;10.878;2023-06-24T06:28:55;2.20;;;2.05;;
18019;SDS011;9135;48.362;10.878;2023-06-24T06:31:21;1.85;;;1.75;;
18019;SDS011;9135;48.362;10.878;2023-06-24T06:33:50;2.00;;;1.90;;
18019;SDS011;9135;48.362;10.878;2023-06-24T06:36:16;2.05;;;1.52;;
18019;SDS011;9135;48.362;10.878;2023-06-24T06:38:42;2.92;;;1.95;;
18019;SDS011;9135;48.362;10.878;2023-06-24T06:41:09;1.60;;;1.50;;
18019;SDS011;9135;48.362;10.878;2023-06-24T06:43:35;1.77;;;1.63;;
18019;SDS011;9135;48.362;10.878;2023-06-24T06:46:01;2.33;;;1.67;;
18019;SDS011;9135;48.362;10.878;2023-06-24T06:48:27;1.92;;;1.73;;
18019;SDS011;9135;48.362;10.878;2023-06-24T06:50:53;1.48;;;1.38;;
18019;SDS011;9135;48.362;10.878;2023-06-24T06:53:20;1.20;;;1.20;;
18019;SDS011;9135;48.362;10.878;2023-06-24T06:55:46;1.50;;;1.40;;
18019;SDS011;9135;48.362;10.878;2023-06-24T06:58:12;1.50;;;1.40;;
18019;SDS011;9135;48.362;10.878;2023-06-24T07:00:38;1.42;;;1.33;;
18019;SDS011;9135;48.362;10.878;2023-06-24T07:03:04;2.28;;;1.83;;
18019;SDS011;9135;48.362;10.878;2023-06-24T07:05:30;1.48;;;1.38;;
18019;SDS011;9135;48.362;10.878;2023-06-24T07:07:56;1.17;;;1.10;;
18019;SDS011;9135;48.362;10.878;2023-06-24T07:10:22;1.83;;;1.67;;
18019;SDS011;9135;48.362;10.878;2023-06-24T07:12:48;1.77;;;1.65;;
18019;SDS011;9135;48.362;10.878;2023-06-24T07:15:14;1.58;;;1.48;;
18019;SDS011;9135;48.362;10.878;2023-06-24T07:17:44;1.63;;;1.48;;
18019;SDS011;9135;48.362;10.878;2023-06-24T07:20:10;1.10;;;1.10;;
18019;SDS011;9135;48.362;10.878;2023-06-24T07:22:36;1.30;;;1.20;;
18019;SDS011;9135;48.362;10.878;2023-06-24T07:25:02;1.52;;;1.33;;
18019;SDS011;9135;48.362;10.878;2023-06-24T07:27:28;1.90;;;1.38;;
18019;SDS011;9135;48.362;10.878;2023-06-24T07:29:54;1.45;;;1.27;;
18019;SDS011;9135;48.362;10.878;2023-06-24T07:32:20;1.50;;;1.40;;
18019;SDS011;9135;48.362;10.878;2023-06-24T07:34:46;1.38;;;1.33;;
18019;SDS011;9135;48.362;10.878;2023-06-24T07:37:12;1.58;;;1.48;;
18019;SDS011;9135;48.362;10.878;2023-06-24T07:39:38;1.65;;;1.55;;
18019;SDS011;9135;48.362;10.878;2023-06-24T07:42:04;1.73;;;1.40;;
18019;SDS011;9135;48.362;10.878;2023-06-24T07:44:30;1.75;;;1.65;;
18019;SDS011;9135;48.362;10.878;2023-06-24T07:46:57;1.95;;;1.63;;
18019;SDS011;9135;48.362;10.878;2023-06-24T07:49:23;1.35;;;1.30;;
18019;SDS011;9135;48.362;10.878;2023-06-24T07:51:49;2.10;;;1.33;;
18019;SDS011;9135;48.362;10.878;2023-06-24T07:54:15;1.70;;;1.60;;
18019;SDS011;9135;48.362;10.878;2023-06-24T07:56:41;1.23;;;1.23;;
18019;SDS011;9135;48.362;10.878;2023-06-24T07:59:07;1.98;;;1.55;;
18019;SDS011;9135;48.362;10.878;2023-06-24T08:01:33;1.33;;;1.23;;
18019;SDS011;9135;48.362;10.878;2023-06-24T08:03:59;1.85;;;1.70;;
18019;SDS011;9135;48.362;10.878;2023-06-24T08:06:25;1.95;;;1.80;;
18019;SDS011;9135;48.362;10.878;2023-06-24T08:08:52;1.83;;;1.17;;
18019;SDS011;9135;48.362;10.878;2023-06-24T08:11:18;4.25;;;1.50;;
18019;SDS011;9135;48.362;10.878;2023-06-24T08:13:44;1.67;;;1.58;;
18019;SDS011;9135;48.362;10.878;2023-06-24T08:16:10;1.83;;;1.58;;
18019;SDS011;9135;48.362;10.878;2023-06-24T08:18:36;1.73;;;1.63;;
18019;SDS011;9135;48.362;10.878;2023-06-24T08:21:02;2.38;;;2.10;;
18019;SDS011;9135;48.362;10.878;2023-06-24T08:23:28;2.35;;;1.70;;
18019;SDS011;9135;48.362;10.878;2023-06-24T08:25:54;1.58;;;1.48;;
18019;SDS011;9135;48.362;10.878;2023-06-24T08:28:20;1.67;;;1.58;;
18019;SDS011;9135;48.362;10.878;2023-06-24T08:30:46;2.03;;;1.85;;
18019;SDS011;9135;48.362;10.878;2023-06-24T08:33:13;1.88;;;1.77;;
18019;SDS011;9135;48.362;10.878;2023-06-24T08:35:39;2.58;;;2.03;;
18019;SDS011;9135;48.362;10.878;2023-06-24T08:38:05;1.52;;;1.42;;
18019;SDS011;9135;48.362;10.878;2023-06-24T08:40:31;1.70;;;1.60;;
18019;SDS011;9135;48.362;10.878;2023-06-24T08:42:57;1.90;;;1.35;;
18019;SDS011;9135;48.362;10.878;2023-06-24T08:45:23;1.42;;;1.33;;
18019;SDS011;9135;48.362;10.878;2023-06-24T08:47:49;1.90;;;1.70;;
18019;SDS011;9135;48.362;10.878;2023-06-24T08:50:16;1.58;;;1.45;;
18019;SDS011;9135;48.362;10.878;2023-06-24T08:52:42;2.03;;;1.80;;
18019;SDS011;9135;48.362;10.878;2023-06-24T08:55:10;1.80;;;1.70;;
18019;SDS011;9135;48.362;10.878;2023-06-24T08:57:36;1.80;;;1.70;;
18019;SDS011;9135;48.362;10.878;2023-06-24T09:00:02;2.42;;;1.73;;
18019;SDS011;9135;48.362;10.878;2023-06-24T09:02:30;2.03;;;1.85;;
18019;SDS011;9135;48.362;10.878;2023-06-24T09:04:57;1.77;;;1.67;;
18019;SDS011;9135;48.362;10.878;2023-06-24T09:07:26;2.40;;;2.10;;
18019;SDS011;9135;48.362;10.878;2023-06-24T09:09:53;2.00;;;1.85;;
18019;SDS011;9135;48.362;10.878;2023-06-24T09:12:19;2.20;;;2.05;;
18019;SDS011;9135;48.362;10.878;2023-06-24T09:14:48;2.67;;;2.25;;
18019;SDS011;9135;48.362;10.878;2023-06-24T09:17:15;1.92;;;1.83;;
18019;SDS011;9135;48.362;10.878;2023-06-24T09:19:41;1.60;;;1.50;;
18019;SDS011;9135;48.362;10.878;2023-06-24T09:22:08;2.30;;;1.92;;
18019;SDS011;9135;48.362;10.878;2023-06-24T09:24:41;3.03;;;2.33;;
18019;SDS011;9135;48.362;10.878;2023-06-24T09:27:10;2.03;;;1.90;;
18019;SDS011;9135;48.362;10.878;2023-06-24T09:29:37;1.95;;;1.85;;
18019;SDS011;9135;48.362;10.878;2023-06-24T09:32:04;2.38;;;2.17;;
18019;SDS011;9135;48.362;10.878;2023-06-24T09:34:30;1.42;;;1.33;;
18019;SDS011;9135;48.362;10.878;2023-06-24T09:36:57;2.53;;;1.98;;
18019;SDS011;9135;48.362;10.878;2023-06-24T09:39:23;2.65;;;2.40;;
18019;SDS011;9135;48.362;10.878;2023-06-24T09:41:59;1.63;;;1.52;;
18019;SDS011;9135;48.362;10.878;2023-06-24T09:44:26;2.03;;;1.75;;
18019;SDS011;9135;48.362;10.878;2023-06-24T09:46:52;1.60;;;1.50;;
18019;SDS011;9135;48.362;10.878;2023-06-24T09:49:18;3.05;;;2.72;;
18019;SDS011;9135;48.362;10.878;2023-06-24T09:51:45;1.85;;;1.75;;
18019;SDS011;9135;48.362;10.878;2023-06-24T09:54:12;2.15;;;1.50;;
18019;SDS011;9135;48.362;10.878;2023-06-24T09:56:43;2.28;;;1.77;;
18019;SDS011;9135;48.362;10.878;2023-06-24T09:59:09;2.25;;;2.00;;
18019;SDS011;9135;48.362;10.878;2023-06-24T10:01:38;2.60;;;1.95;;
18019;SDS011;9135;48.362;10.878;2023-06-24T10:04:07;1.98;;;1.83;;
18019;SDS011;9135;48.362;10.878;2023-06-24T10:06:34;1.75;;;1.65;;
18019;SDS011;9135;48.362;10.878;2023-06-24T10:09:00;2.17;;;1.40;;
18019;SDS011;9135;48.362;10.878;2023-06-24T10:11:26;2.92;;;1.83;;
18019;SDS011;9135;48.362;10.878;2023-06-24T10:13:53;2.85;;;1.77;;
18019;SDS011;9135;48.362;10.878;2023-06-24T10:16:22;3.30;;;1.77;;
18019;SDS011;9135;48.362;10.878;2023-06-24T10:18:48;1.73;;;1.63;;
18019;SDS011;9135;48.362;10.878;2023-06-24T10:21:15;1.88;;;1.67;;
18019;SDS011;9135;48.362;10.878;2023-06-24T10:34:20;1.70;;;1.33;;
18019;SDS011;9135;48.362;10.878;2023-06-24T10:44:49;1.92;;;1.73;;
18019;SDS011;9135;48.362;10.878;2023-06-24T10:47:16;2.85;;;2.05;;
18019;SDS011;9135;48.362;10.878;2023-06-24T10:49:43;2.00;;;1.77;;
18019;SDS011;9135;48.362;10.878;2023-06-24T10:52:12;1.95;;;1.77;;
18019;SDS011;9135;48.362;10.878;2023-06-24T10:54:41;2.53;;;2.33;;
18019;SDS011;9135;48.362;10.878;2023-06-24T10:57:07;1.77;;;1.67;;
18019;SDS011;9135;48.362;10.878;2023-06-24T10:59:55;2.30;;;1.90;;
18019;SDS011;9135;48.362;10.878;2023-06-24T11:02:20;2.40;;;1.27;;
18019;SDS011;9135;48.362;10.878;2023-06-24T11:07:12;2.03;;;1.92;;
18019;SDS011;9135;48.362;10.878;2023-06-24T11:09:41;1.70;;;1.60;;
18019;SDS011;9135;48.362;10.878;2023-06-24T11:12:10;2.33;;;1.73;;
18019;SDS011;9135;48.362;10.878;2023-06-24T11:14:40;1.50;;;1.40;;
18019;SDS011;9135;48.362;10.878;2023-06-24T11:17:06;1.77;;;1.60;;
18019;SDS011;9135;48.362;10.878;2023-06-24T11:19:32;1.35;;;1.25;;
18019;SDS011;9135;48.362;10.878;2023-06-24T11:21:59;2.17;;;1.98;;
18019;SDS011;9135;48.362;10.878;2023-06-24T11:24:26;2.00;;;1.80;;
18019;SDS011;9135;48.362;10.878;2023-06-24T11:26:52;1.60;;;1.50;;
18019;SDS011;9135;48.362;10.878;2023-06-24T11:29:18;1.75;;;1.40;;
18019;SDS011;9135;48.362;10.878;2023-06-24T11:31:45;3.40;;;1.85;;
18019;SDS011;9135;48.362;10.878;2023-06-24T11:34:11;1.80;;;1.70;;
18019;SDS011;9135;48.362;10.878;2023-06-24T11:36:37;2.47;;;1.80;;
18019;SDS011;9135;48.362;10.878;2023-06-24T11:39:06;1.50;;;1.40;;
18019;SDS011;9135;48.362;10.878;2023-06-24T11:41:32;1.50;;;1.40;;
18019;SDS011;9135;48.362;10.878;2023-06-24T11:44:02;1.58;;;1.50;;
18019;SDS011;9135;48.362;10.878;2023-06-24T11:46:29;1.95;;;1.80;;
18019;SDS011;9135;48.362;10.878;2023-06-24T11:49:07;2.25;;;2.05;;
18019;SDS011;9135;48.362;10.878;2023-06-24T11:51:34;1.77;;;1.67;;
18019;SDS011;9135;48.362;10.878;2023-06-24T11:54:03;1.92;;;1.65;;
18019;SDS011;9135;48.362;10.878;2023-06-24T11:56:38;1.75;;;1.60;;
18019;SDS011;9135;48.362;10.878;2023-06-24T11:59:26;1.50;;;1.40;;
18019;SDS011;9135;48.362;10.878;2023-06-24T12:01:55;2.17;;;1.92;;
18019;SDS011;9135;48.362;10.878;2023-06-24T12:04:21;2.03;;;1.58;;
18019;SDS011;9135;48.362;10.878;2023-06-24T12:06:52;1.60;;;1.50;;
18019;SDS011;9135;48.362;10.878;2023-06-24T12:09:18;1.27;;;1.17;;
18019;SDS011;9135;48.362;10.878;2023-06-24T12:11:45;2.20;;;1.58;;
18019;SDS011;9135;48.362;10.878;2023-06-24T12:14:11;2.47;;;1.95;;
18019;SDS011;9135;48.362;10.878;2023-06-24T12:16:38;1.65;;;1.50;;
18019;SDS011;9135;48.362;10.878;2023-06-24T12:19:04;1.75;;;1.65;;
18019;SDS011;9135;48.362;10.878;2023-06-24T12:21:30;2.10;;;1.55;;
18019;SDS011;9135;48.362;10.878;2023-06-24T12:23:56;1.40;;;1.30;;
18019;SDS011;9135;48.362;10.878;2023-06-24T12:26:22;1.73;;;1.45;;
18019;SDS011;9135;48.362;10.878;2023-06-24T12:28:48;2.15;;;1.85;;
18019;SDS011;9135;48.362;10.878;2023-06-24T12:31:14;1.52;;;1.42;;
18019;SDS011;9135;48.362;10.878;2023-06-24T12:33:40;2.15;;;1.63;;
18019;SDS011;9135;48.362;10.878;2023-06-24T12:36:09;2.20;;;1.77;;
18019;SDS011;9135;48.362;10.878;2023-06-24T12:38:35;1.67;;;1.58;;
18019;SDS011;9135;48.362;10.878;2023-06-24T12:41:01;1.60;;;1.50;;
18019;SDS011;9135;48.362;10.878;2023-06-24T12:43:27;3.50;;;2.13;;
18019;SDS011;9135;48.362;10.878;2023-06-24T12:45:53;1.48;;;1.38;;
18019;SDS011;9135;48.362;10.878;2023-06-24T12:48:20;1.45;;;1.33;;
18019;SDS011;9135;48.362;10.878;2023-06-24T12:50:46;1.45;;;1.35;;
18019;SDS011;9135;48.362;10.878;2023-06-24T12:53:17;1.20;;;1.10;;
18019;SDS011;9135;48.362;10.878;2023-06-24T12:55:43;1.67;;;1.45;;
18019;SDS011;9135;48.362;10.878;2023-06-24T12:58:09;1.30;;;1.30;;
18019;SDS011;9135;48.362;10.878;2023-06-24T13:00:35;1.40;;;1.30;;
18019;SDS011;9135;48.362;10.878;2023-06-24T13:03:02;1.38;;;1.27;;
18019;SDS011;9135;48.362;10.878;2023-06-24T13:05:28;1.35;;;1.25;;
18019;SDS011;9135;48.362;10.878;2023-06-24T13:07:54;1.55;;;1.45;;
18019;SDS011;9135;48.362;10.878;2023-06-24T13:10:20;2.65;;;1.90;;
18019;SDS011;9135;48.362;10.878;2023-06-24T13:12:46;1.30;;;1.20;;
18019;SDS011;9135;48.362;10.878;2023-06-24T13:15:12;1.42;;;1.33;;
18019;SDS011;9135;48.362;10.878;2023-06-24T13:17:39;2.15;;;1.85;;
18019;SDS011;9135;48.362;10.878;2023-06-24T13:20:06;1.52;;;1.42;;
18019;SDS011;9135;48.362;10.878;2023-06-24T13:22:32;1.73;;;1.63;;
18019;SDS011;9135;48.362;10.878;2023-06-24T13:24:58;1.95;;;1.73;;
18019;SDS011;9135;48.362;10.878;2023-06-24T13:27:24;1.35;;;1.25;;
18019;SDS011;9135;48.362;10.878;2023-06-24T13:29:50;1.77;;;1.40;;
18019;SDS011;9135;48.362;10.878;2023-06-24T13:32:16;1.08;;;1.00;;
18019;SDS011;9135;48.362;10.878;2023-06-24T13:34:42;1.75;;;1.65;;
18019;SDS011;9135;48.362;10.878;2023-06-24T13:37:08;1.50;;;1.40;;
18019;SDS011;9135;48.362;10.878;2023-06-24T13:39:34;1.10;;;1.00;;
18019;SDS011;9135;48.362;10.878;2023-06-24T13:42:00;2.92;;;1.55;;
18019;SDS011;9135;48.362;10.878;2023-06-24T13:44:26;1.88;;;1.50;;
18019;SDS011;9135;48.362;10.878;2023-06-24T13:46:52;2.45;;;1.45;;
18019;SDS011;9135;48.362;10.878;2023-06-24T13:49:19;1.55;;;1.40;;
18019;SDS011;9135;48.362;10.878;2023-06-24T13:51:45;1.17;;;1.00;;
18019;SDS011;9135;48.362;10.878;2023-06-24T13:54:11;1.48;;;1.30;;
18019;SDS011;9135;48.362;10.878;2023-06-24T13:56:37;1.00;;;1.00;;
18019;SDS011;9135;48.362;10.878;2023-06-24T13:59:03;1.98;;;1.40;;
18019;SDS011;9135;48.362;10.878;2023-06-24T14:01:29;1.23;;;1.13;;
18019;SDS011;9135;48.362;10.878;2023-06-24T14:03:56;1.38;;;1.27;;
18019;SDS011;9135;48.362;10.878;2023-06-24T14:06:23;1.58;;;1.48;;
18019;SDS011;9135;48.362;10.878;2023-06-24T14:08:50;1.05;;;1.00;;
18019;SDS011;9135;48.362;10.878;2023-06-24T14:11:16;2.88;;;1.50;;
18019;SDS011;9135;48.362;10.878;2023-06-24T14:13:42;1.52;;;1.27;;
18019;SDS011;9135;48.362;10.878;2023-06-24T14:16:09;2.13;;;1.92;;
18019;SDS011;9135;48.362;10.878;2023-06-24T14:18:35;1.67;;;1.48;;
18019;SDS011;9135;48.362;10.878;2023-06-24T14:21:02;1.33;;;1.23;;
18019;SDS011;9135;48.362;10.878;2023-06-24T14:23:29;1.45;;;1.20;;
18019;SDS011;9135;48.362;10.878;2023-06-24T14:25:55;1.73;;;1.63;;
18019;SDS011;9135;48.362;10.878;2023-06-24T14:28:21;1.30;;;1.30;;
18019;SDS011;9135;48.362;10.878;2023-06-24T14:30:48;1.40;;;1.30;;
18019;SDS011;9135;48.362;10.878;2023-06-24T14:33:14;1.50;;;1.40;;
18019;SDS011;9135;48.362;10.878;2023-06-24T14:35:40;1.90;;;1.50;;
18019;SDS011;9135;48.362;10.878;2023-06-24T14:38:06;1.45;;;1.20;;
18019;SDS011;9135;48.362;10.878;2023-06-24T14:40:32;0.93;;;0.93;;
18019;SDS011;9135;48.362;10.878;2023-06-24T14:42:59;3.35;;;1.40;;
18019;SDS011;9135;48.362;10.878;2023-06-24T14:45:25;1.60;;;1.50;;
18019;SDS011;9135;48.362;10.878;2023-06-24T14:47:51;1.52;;;1.33;;
18019;SDS011;9135;48.362;10.878;2023-06-24T14:50:17;1.83;;;1.73;;
18019;SDS011;9135;48.362;10.878;2023-06-24T14:52:43;5.40;;;1.48;;
18019;SDS011;9135;48.362;10.878;2023-06-24T14:55:09;3.05;;;2.05;;
18019;SDS011;9135;48.362;10.878;2023-06-24T14:57:36;1.83;;;1.50;;
18019;SDS011;9135;48.362;10.878;2023-06-24T15:00:11;1.98;;;1.63;;
18019;SDS011;9135;48.362;10.878;2023-06-24T15:02:37;1.30;;;1.27;;
18019;SDS011;9135;48.362;10.878;2023-06-24T15:05:03;2.60;;;1.60;;
18019;SDS011;9135;48.362;10.878;2023-06-24T15:07:29;1.67;;;1.45;;
18019;SDS011;9135;48.362;10.878;2023-06-24T15:09:55;1.40;;;1.02;;
18019;SDS011;9135;48.362;10.878;2023-06-24T15:12:21;1.42;;;1.33;;
18019;SDS011;9135;48.362;10.878;2023-06-24T15:14:47;1.55;;;1.45;;
18019;SDS011;9135;48.362;10.878;2023-06-24T15:17:14;1.70;;;1.48;;
18019;SDS011;9135;48.362;10.878;2023-06-24T15:19:40;2.70;;;1.90;;